Time;durP1;ratioP1;P1;durP2;ratioP2;P2;SDS_P1;SDS_P2;PMS_P1;PMS_P2;Temp;Humidity;BMP_temperature;BMP_pressure;BME280_temperature;BME280_humidity;BME280_pressure;Samples;Min_cycle;Max_cycle;Signal;HPM_P1;HPM_P2
2022/01/29 00:01:50;;;;;;;28.67;15.20;;;;;;;5.07;88.66;102434.34;4978125;28;20047;-84
2022/01/29 00:04:20;;;;;;;25.25;14.45;;;;;;;5.18;88.63;102448.47;4979503;28;20431;-84
2022/01/29 00:06:47;;;;;;;25.67;15.05;;;;;;;5.32;88.13;102456.38;4984765;28;20090;-84
2022/01/29 00:09:24;;;;;;;26.98;15.18;;;;;;;5.24;88.30;102434.31;4977634;28;20419;-85
2022/01/29 00:16:24;;;;;;;28.27;15.15;;;;;;;5.24;87.97;102431.72;4844093;29;20110;-84
2022/01/29 00:19:02;;;;;;;31.73;16.55;;;;;;;5.47;88.70;102459.97;4836565;29;20061;-86
2022/01/29 00:24:37;;;;;;;34.92;17.98;;;;;;;5.45;88.42;102451.41;4956630;23;20097;-84
2022/01/29 00:27:09;;;;;;;30.95;16.80;;;;;;;5.50;87.90;102448.56;4964247;29;20051;-84
2022/01/29 00:29:38;;;;;;;38.05;17.33;;;;;;;5.52;88.57;102447.56;4962872;29;20102;-85
2022/01/29 00:32:05;;;;;;;29.92;16.45;;;;;;;5.46;87.86;102423.69;4965251;29;20062;-85
2022/01/29 00:34:33;;;;;;;35.53;18.88;;;;;;;5.51;87.96;102443.31;4964502;29;20130;-82
2022/01/29 00:37:00;;;;;;;34.38;17.52;;;;;;;5.53;88.36;102428.50;4963780;28;20063;-85
2022/01/29 00:39:28;;;;;;;33.50;17.73;;;;;;;5.58;87.91;102434.28;4960503;28;20047;-84
2022/01/29 00:41:54;;;;;;;34.35;18.40;;;;;;;5.55;88.35;102412.81;4960377;28;20130;-83
2022/01/29 00:44:21;;;;;;;34.75;17.67;;;;;;;5.59;87.73;102410.00;4959218;28;20141;-84
2022/01/29 00:46:48;;;;;;;38.85;18.88;;;;;;;5.60;87.88;102409.06;4961082;28;20062;-84
2022/01/29 00:49:15;;;;;;;38.50;18.90;;;;;;;5.58;88.19;102413.50;4961446;28;20055;-84
2022/01/29 00:51:43;;;;;;;35.42;18.10;;;;;;;5.58;87.59;102418.69;4963896;28;20186;-84
2022/01/29 00:54:10;;;;;;;33.28;17.70;;;;;;;5.43;88.24;102390.09;4960573;28;20051;-84
2022/01/29 00:56:39;;;;;;;32.25;18.27;;;;;;;5.62;87.70;102422.81;4959650;28;20260;-84
2022/01/29 00:59:06;;;;;;;32.97;18.20;;;;;;;5.63;87.99;102418.47;4959234;28;20203;-83
2022/01/29 01:01:32;;;;;;;31.23;17.90;;;;;;;5.64;87.70;102415.78;4959214;28;20146;-84
2022/01/29 01:04:01;;;;;;;33.50;17.30;;;;;;;5.61;87.44;102415.09;4960124;28;20079;-84
2022/01/29 01:06:28;;;;;;;35.47;18.70;;;;;;;5.51;87.23;102393.13;4959897;28;20055;-84
2022/01/29 01:08:56;;;;;;;30.48;17.73;;;;;;;5.60;87.97;102414.28;4960518;28;20051;-84
2022/01/29 01:11:24;;;;;;;39.40;17.65;;;;;;;5.66;87.68;102418.31;4960509;28;20114;-85
2022/01/29 01:14:01;;;;;;;31.93;18.13;;;;;;;5.70;87.19;102416.34;4963666;28;20054;-84
2022/01/29 01:16:28;;;;;;;35.85;17.92;;;;;;;5.63;87.26;102408.06;4961922;28;20260;-83
2022/01/29 01:18:54;;;;;;;30.90;17.45;;;;;;;5.50;87.49;102375.88;4967336;28;20059;-83
2022/01/29 01:21:21;;;;;;;32.90;17.98;;;;;;;5.66;87.50;102408.75;4966776;28;20051;-83
2022/01/29 01:23:48;;;;;;;35.78;19.15;;;;;;;5.60;87.52;102388.28;4966995;28;20051;-84
2022/01/29 01:26:16;;;;;;;32.97;17.48;;;;;;;5.64;87.53;102400.19;4982151;28;20147;-85
2022/01/29 01:28:43;;;;;;;37.42;18.27;;;;;;;5.66;87.45;102390.56;4986515;28;20504;-85
2022/01/29 01:31:09;;;;;;;33.65;19.98;;;;;;;5.64;88.08;102384.63;4992343;28;20121;-85
2022/01/29 01:33:36;;;;;;;32.63;17.83;;;;;;;5.63;88.18;102382.09;4992064;28;20074;-83
2022/01/29 01:36:07;;;;;;;33.67;19.05;;;;;;;5.64;88.09;102363.00;4992402;28;20055;-83
2022/01/29 01:38:40;;;;;;;35.33;17.85;;;;;;;5.70;87.52;102359.22;4992463;28;20050;-83
2022/01/29 01:41:11;;;;;;;40.00;20.25;;;;;;;5.61;88.05;102343.22;4994650;28;20047;-83
2022/01/29 01:43:42;;;;;;;39.42;19.75;;;;;;;5.56;87.86;102347.81;4996913;28;20054;-83
2022/01/29 01:46:09;;;;;;;41.63;19.60;;;;;;;5.58;88.09;102356.38;4995854;28;20062;-83
2022/01/29 01:48:35;;;;;;;38.67;18.92;;;;;;;5.67;87.48;102336.88;4993550;28;20097;-84
2022/01/29 01:51:02;;;;;;;35.70;19.58;;;;;;;5.68;87.28;102339.34;4990787;28;20062;-84
2022/01/29 01:53:29;;;;;;;38.53;20.58;;;;;;;5.62;87.71;102333.69;4989208;28;20047;-84
2022/01/29 01:55:56;;;;;;;34.20;19.50;;;;;;;5.70;88.11;102335.84;4989618;28;20078;-85
2022/01/29 01:58:22;;;;;;;37.42;20.38;;;;;;;5.70;87.80;102330.66;4991924;28;20054;-84
2022/01/29 02:00:51;;;;;;;40.50;20.63;;;;;;;5.71;87.66;102319.34;4997563;28;20086;-85
2022/01/29 02:03:19;;;;;;;36.45;20.42;;;;;;;5.72;87.98;102306.25;4997954;28;20142;-83
2022/01/29 02:05:46;;;;;;;37.33;20.20;;;;;;;5.73;87.71;102300.16;4998062;28;20102;-83
2022/01/29 02:08:14;;;;;;;38.53;21.40;;;;;;;5.72;87.68;102298.47;4997120;28;20062;-83
2022/01/29 02:10:44;;;;;;;41.45;19.48;;;;;;;5.75;87.73;102292.28;4996946;28;20061;-82
2022/01/29 02:13:11;;;;;;;35.03;19.30;;;;;;;5.67;88.14;102301.31;4992858;28;20063;-84
2022/01/29 02:15:38;;;;;;;37.25;19.60;;;;;;;5.77;87.34;102295.63;4991681;28;20039;-84
2022/01/29 02:18:12;;;;;;;35.92;19.40;;;;;;;5.77;87.57;102283.47;4994606;28;20054;-84
2022/01/29 02:20:39;;;;;;;33.40;19.40;;;;;;;5.79;87.27;102268.66;4983650;28;20058;-85
2022/01/29 02:23:07;;;;;;;33.08;19.73;;;;;;;5.80;87.59;102253.91;4980911;28;20074;-85
2022/01/29 02:25:40;;;;;;;37.97;19.83;;;;;;;5.81;87.90;102263.38;4980666;28;20078;-84
2022/01/29 02:28:07;;;;;;;;;;;;;;;5.81;87.70;102261.59;4981136;28;20057;-85
2022/01/29 02:30:36;;;;;;;35.92;18.95;;;;;;;5.79;87.54;102276.44;4983352;28;20174;-86
2022/01/29 02:33:06;;;;;;;40.13;19.67;;;;;;;5.81;87.88;102263.38;4984708;28;20066;-85
2022/01/29 02:35:33;;;;;;;35.28;20.27;;;;;;;5.81;88.03;102255.56;4982501;28;20047;-85
2022/01/29 02:38:00;;;;;;;38.65;19.63;;;;;;;5.74;88.08;102243.84;4980850;28;20489;-84
2022/01/29 02:40:34;;;;;;;39.42;19.40;;;;;;;5.81;87.71;102239.97;4981531;28;20475;-86
2022/01/29 02:43:11;;;;;;;33.70;20.05;;;;;;;5.80;88.01;102243.50;4981491;28;20132;-85
2022/01/29 02:45:40;;;;;;;38.85;20.58;;;;;;;5.81;88.25;102243.41;4982323;28;20050;-85
2022/01/29 02:48:10;;;;;;;35.10;20.33;;;;;;;5.84;88.47;102255.41;4983789;28;20055;-85
2022/01/29 02:50:37;;;;;;;34.58;20.58;;;;;;;5.85;88.51;102246.69;4986673;28;20062;-86
2022/01/29 02:53:04;;;;;;;38.10;20.73;;;;;;;5.75;87.84;102251.56;4983625;28;20051;-86
2022/01/29 02:55:32;;;;;;;38.15;21.42;;;;;;;5.84;88.26;102245.00;4983036;28;20460;-85
2022/01/29 02:58:00;;;;;;;32.80;19.58;;;;;;;5.72;88.35;102225.75;4983571;28;20050;-86
2022/01/29 03:00:27;;;;;;;37.08;20.70;;;;;;;5.81;88.59;102225.22;4982449;28;20055;-85
2022/01/29 03:02:54;;;;;;;37.53;20.35;;;;;;;5.82;88.71;102226.91;4981005;28;20082;-83
2022/01/29 03:05:21;;;;;;;36.83;20.90;;;;;;;5.76;88.99;102213.44;4980302;28;20134;-83
2022/01/29 03:07:48;;;;;;;39.20;21.30;;;;;;;5.78;89.23;102216.78;4980422;28;20055;-85
2022/01/29 03:10:15;;;;;;;36.47;20.08;;;;;;;5.77;89.20;102202.13;4983060;28;20050;-85
2022/01/29 03:12:43;;;;;;;36.90;20.65;;;;;;;5.67;89.40;102197.44;4983828;28;20113;-85
2022/01/29 03:15:11;;;;;;;38.85;21.10;;;;;;;5.77;89.47;102202.13;4983226;28;20102;-85
2022/01/29 03:17:38;;;;;;;34.15;20.15;;;;;;;5.83;89.54;102201.78;4984967;28;20089;-84
2022/01/29 03:20:06;;;;;;;36.17;19.75;;;;;;;5.81;89.87;102207.06;4985436;28;20110;-85
2022/01/29 03:22:33;;;;;;;39.72;21.40;;;;;;;5.80;90.22;102209.72;4984827;28;20078;-85
2022/01/29 03:24:59;;;;;;;39.78;21.92;;;;;;;5.77;90.44;102204.72;4983020;28;20063;-85
2022/01/29 03:27:26;;;;;;;37.53;20.40;;;;;;;5.75;90.13;102201.38;4983176;28;20082;-85
2022/01/29 03:29:54;;;;;;;37.63;19.67;;;;;;;5.79;90.20;102192.47;4981697;28;20058;-84
2022/01/29 03:32:20;;;;;;;40.75;20.48;;;;;;;5.75;90.25;102198.75;4981050;28;20115;-85
2022/01/29 03:34:47;;;;;;;43.17;22.60;;;;;;;5.76;90.63;102197.84;4982141;28;20084;-85
2022/01/29 03:37:14;;;;;;;38.42;20.30;;;;;;;5.73;91.23;102195.41;4982274;28;20046;-84
2022/01/29 03:39:43;;;;;;;40.70;20.45;;;;;;;5.77;91.63;102194.31;4981893;28;20054;-84
2022/01/29 03:42:11;;;;;;;41.33;20.88;;;;;;;5.73;91.38;102185.03;4981142;28;20047;-84
2022/01/29 03:44:38;;;;;;;43.13;21.98;;;;;;;5.72;91.91;102178.16;4981992;28;20058;-83
2022/01/29 03:47:07;;;;;;;38.88;20.70;;;;;;;5.71;92.56;102181.69;4980124;28;20066;-83
2022/01/29 03:49:33;;;;;;;40.70;20.20;;;;;;;5.66;93.14;102172.41;4980438;28;20062;-83
2022/01/29 03:52:00;;;;;;;39.25;21.35;;;;;;;5.66;93.56;102180.22;4980178;28;20116;-83
2022/01/29 03:54:27;;;;;;;37.15;20.48;;;;;;;5.63;93.57;102170.00;4980506;28;20129;-84
2022/01/29 03:56:54;;;;;;;38.00;19.95;;;;;;;5.61;94.02;102165.81;4983312;28;20134;-84
2022/01/29 03:59:20;;;;;;;35.28;21.00;;;;;;;5.57;93.90;102178.13;4981964;28;20407;-83
2022/01/29 04:01:47;;;;;;;38.55;19.20;;;;;;;5.51;94.47;102169.84;4982549;28;20121;-84
2022/01/29 04:04:15;;;;;;;36.58;19.73;;;;;;;5.54;94.97;102180.06;4982904;28;20051;-84
2022/01/29 04:06:42;;;;;;;33.90;18.95;;;;;;;5.56;94.33;102173.84;4981231;28;20093;-84
2022/01/29 04:09:11;;;;;;;33.90;18.35;;;;;;;5.51;94.92;102162.03;4979937;28;20051;-84
2022/01/29 04:11:38;;;;;;;30.33;17.73;;;;;;;5.54;94.91;102157.53;4979286;28;20114;-85
2022/01/29 04:14:13;;;;;;;31.30;17.58;;;;;;;5.57;94.40;102164.31;4982627;28;20101;-85
2022/01/29 04:16:40;;;;;;;35.17;18.83;;;;;;;5.61;94.44;102158.00;4984025;28;20050;-85
2022/01/29 04:19:07;;;;;;;37.10;19.25;;;;;;;5.63;93.90;102158.75;4979315;28;20571;-84
2022/01/29 04:21:35;;;;;;;35.20;18.40;;;;;;;5.58;94.12;102150.41;4978170;28;20093;-84
2022/01/29 04:24:01;;;;;;;28.50;17.50;;;;;;;5.58;94.55;102148.63;4980340;28;20486;-83
2022/01/29 04:26:33;;;;;;;28.90;18.55;;;;;;;5.63;94.46;102148.38;4992144;28;20136;-86
2022/01/29 04:29:02;;;;;;;27.40;17.27;;;;;;;5.75;94.03;102141.63;4985417;28;20057;-84
2022/01/29 04:31:37;;;;;;;31.35;18.98;;;;;;;5.75;94.15;102146.81;4979271;28;20110;-84
2022/01/29 04:34:04;;;;;;;30.83;17.50;;;;;;;5.72;94.48;102139.19;4980639;28;20093;-86
2022/01/29 04:36:31;;;;;;;29.25;17.30;;;;;;;5.72;95.63;102134.00;4979090;28;20503;-85
2022/01/29 04:38:58;;;;;;;33.85;17.92;;;;;;;5.62;96.48;102137.16;4978950;28;20110;-85
2022/01/29 04:41:25;;;;;;;34.58;18.73;;;;;;;5.62;96.17;102142.34;4978772;28;20137;-85
2022/01/29 04:43:52;;;;;;;32.92;18.58;;;;;;;5.54;96.73;102131.56;4978629;28;20137;-85
2022/01/29 04:46:18;;;;;;;31.13;18.63;;;;;;;5.50;97.09;102122.25;4978440;28;20058;-86
2022/01/29 04:48:45;;;;;;;26.60;17.45;;;;;;;5.39;97.11;102109.03;4977850;28;20549;-85
2022/01/29 04:51:12;;;;;;;31.45;18.15;;;;;;;5.54;97.73;102121.16;4989957;28;20452;-84
2022/01/29 04:53:40;;;;;;;29.67;18.27;;;;;;;5.53;97.21;102127.28;4991507;28;20122;-84
2022/01/29 04:56:08;;;;;;;34.95;19.42;;;;;;;5.52;97.76;102130.81;4988918;28;20451;-85
2022/01/29 04:58:35;;;;;;;32.15;18.20;;;;;;;5.50;97.36;102126.63;4984464;28;20119;-84
2022/01/29 05:01:02;;;;;;;32.47;18.60;;;;;;;5.54;97.89;102131.56;4984313;28;20142;-84
2022/01/29 05:03:29;;;;;;;30.45;16.63;;;;;;;5.55;97.93;102129.78;4983936;28;20050;-84
2022/01/29 05:05:55;;;;;;;27.30;15.55;;;;;;;5.55;97.99;102122.84;4982654;28;20054;-83
2022/01/29 05:08:22;;;;;;;29.73;16.77;;;;;;;5.63;97.92;102123.25;4982662;28;20061;-84
2022/01/29 05:10:49;;;;;;;24.27;14.27;;;;;;;5.57;97.93;102123.59;4982818;28;20126;-84
2022/01/29 05:13:21;;;;;;;24.55;14.65;;;;;;;5.56;98.52;102119.31;4982955;28;20586;-84
2022/01/29 05:16:01;;;;;;;24.45;14.90;;;;;;;5.56;98.00;102124.50;4982662;28;20078;-83
2022/01/29 05:26:54;;;;;;;;;;;;;;;5.58;98.30;102121.84;4955010;28;20063;-84
2022/01/29 05:29:23;;;;;;;25.85;13.98;;;;;;;5.63;97.88;102109.44;4988750;28;19922;-84
2022/01/29 05:31:51;;;;;;;26.75;15.07;;;;;;;5.65;98.36;102105.81;4984674;28;20093;-87
2022/01/29 05:34:19;;;;;;;22.90;15.13;;;;;;;5.66;97.62;102106.66;4983590;28;20055;-85
2022/01/29 05:36:45;;;;;;;23.65;14.57;;;;;;;5.68;98.12;102100.41;4983627;28;20081;-84
2022/01/29 05:39:12;;;;;;;26.00;16.38;;;;;;;5.64;98.01;102113.69;4967187;28;20138;-85
2022/01/29 05:41:39;;;;;;;24.15;13.68;;;;;;;5.63;97.92;102110.25;4982811;28;20162;-85
2022/01/29 05:44:09;;;;;;;22.15;12.85;;;;;;;5.67;98.34;102110.94;4986879;28;20055;-86
2022/01/29 05:46:52;;;;;;;18.95;13.38;;;;;;;5.54;97.97;102092.59;4968482;28;20046;-85
2022/01/29 05:49:20;;;;;;;22.25;13.20;;;;;;;5.67;98.39;102103.13;4985803;28;20078;-85
2022/01/29 05:51:48;;;;;;;21.08;13.73;;;;;;;5.52;98.38;102062.47;4987798;28;20051;-85
2022/01/29 05:54:20;;;;;;;18.42;12.15;;;;;;;5.50;98.33;102064.31;4984810;28;20055;-84
2022/01/29 05:57:01;;;;;;;16.63;11.15;;;;;;;5.51;98.89;102061.63;4985565;28;20097;-85
2022/01/29 05:59:28;;;;;;;19.33;11.75;;;;;;;5.46;98.68;102068.84;4985455;28;20070;-85
2022/01/29 06:01:57;;;;;;;19.88;11.55;;;;;;;5.65;98.74;102100.63;4985559;28;20038;-85
2022/01/29 06:04:26;;;;;;;16.65;11.52;;;;;;;5.50;99.14;102072.09;4985237;28;20097;-85
2022/01/29 06:07:00;;;;;;;16.58;11.35;;;;;;;5.58;99.26;102083.72;4968441;28;20173;-84
2022/01/29 06:09:27;;;;;;;23.45;13.32;;;;;;;5.55;99.46;102078.69;4984191;28;20499;-84
2022/01/29 06:11:53;;;;;;;18.85;13.18;;;;;;;5.50;99.58;102070.34;4982599;28;20078;-84
2022/01/29 06:14:20;;;;;;;19.20;13.05;;;;;;;5.59;99.41;102067.22;4981365;28;20051;-84
2022/01/29 06:16:46;;;;;;;18.88;13.13;;;;;;;5.63;98.84;102070.47;4982942;28;20111;-85
2022/01/29 06:19:15;;;;;;;18.20;11.70;;;;;;;5.68;99.06;102076.22;4981042;28;20043;-84
2022/01/29 06:21:41;;;;;;;18.13;12.15;;;;;;;5.55;99.23;102057.09;4982954;28;20051;-85
2022/01/29 06:24:08;;;;;;;16.50;11.00;;;;;;;5.70;98.83;102066.56;4981812;28;20448;-84
2022/01/29 06:26:36;;;;;;;15.95;10.80;;;;;;;5.55;98.69;102031.13;4972600;23;20087;-82
2022/01/29 06:29:06;;;;;;;17.27;11.63;;;;;;;5.53;98.37;102033.81;4940141;29;20492;-82
2022/01/29 06:31:33;;;;;;;15.98;11.30;;;;;;;5.68;98.49;102058.88;4940770;29;20562;-83
2022/01/29 06:34:01;;;;;;;15.85;10.73;;;;;;;5.60;98.58;102034.28;4941406;29;20044;-82
2022/01/29 06:36:30;;;;;;;17.98;11.85;;;;;;;5.76;98.02;102054.97;4940750;29;20048;-82
2022/01/29 06:41:59;;;;;;;18.55;12.68;;;;;;;5.84;97.97;102044.97;4938740;29;20518;-82
2022/01/29 06:44:34;;;;;;;16.73;11.73;;;;;;;5.90;97.82;102055.03;4927717;29;20055;-82
2022/01/29 06:47:10;;;;;;;17.30;12.65;;;;;;;5.72;97.82;102024.91;4939735;29;20043;-82
2022/01/29 06:49:37;;;;;;;17.33;12.48;;;;;;;5.87;98.05;102037.84;4937545;29;20048;-82
2022/01/29 06:52:05;;;;;;;16.50;11.82;;;;;;;5.90;97.81;102032.50;4940770;29;20155;-83
2022/01/29 06:54:32;;;;;;;16.15;11.38;;;;;;;5.98;97.88;102032.03;4940456;29;20086;-83
2022/01/29 06:56:59;;;;;;;16.77;11.45;;;;;;;6.00;97.53;102040.59;4940245;29;20087;-83
2022/01/29 06:59:25;;;;;;;16.73;11.85;;;;;;;6.08;96.96;102035.78;4940522;29;20107;-83
2022/01/29 07:01:52;;;;;;;16.60;12.10;;;;;;;6.06;96.85;102031.59;4943196;29;20052;-82
2022/01/29 07:04:18;;;;;;;16.52;11.68;;;;;;;6.07;96.68;102022.88;4942163;29;20063;-83
2022/01/29 07:06:45;;;;;;;18.10;12.38;;;;;;;6.12;96.71;102029.47;4940164;29;20051;-84
2022/01/29 07:09:13;;;;;;;20.23;13.30;;;;;;;6.19;96.41;102035.94;4938678;29;20126;-84
2022/01/29 07:11:42;;;;;;;16.45;11.38;;;;;;;6.14;95.89;102030.19;4938419;29;20079;-84
2022/01/29 07:14:15;;;;;;;17.67;12.93;;;;;;;6.17;95.80;102019.59;4937396;29;20047;-83
2022/01/29 07:16:43;;;;;;;16.08;11.65;;;;;;;6.27;95.58;102028.50;4939894;29;20107;-82
2022/01/29 07:19:09;;;;;;;17.17;11.98;;;;;;;6.25;95.28;102022.56;4937510;29;20549;-83
2022/01/29 07:21:36;;;;;;;17.42;12.02;;;;;;;6.27;95.32;102014.66;4939210;29;20056;-82
2022/01/29 07:24:03;;;;;;;15.35;11.82;;;;;;;6.28;95.16;102021.53;4939501;29;20062;-82
2022/01/29 07:26:31;;;;;;;20.75;12.75;;;;;;;6.30;95.48;102023.13;4950558;29;20053;-82
2022/01/29 07:28:57;;;;;;;17.90;11.65;;;;;;;6.26;95.40;102013.00;4946837;29;20444;-82
2022/01/29 07:31:24;;;;;;;16.77;11.15;;;;;;;6.31;94.58;102006.59;4937954;29;20134;-82
2022/01/29 07:33:51;;;;;;;14.30;11.23;;;;;;;6.36;94.76;102010.66;4937703;29;20051;-82
2022/01/29 07:36:17;;;;;;;14.60;10.90;;;;;;;6.36;94.75;102003.72;4937126;29;20549;-83
2022/01/29 07:38:44;;;;;;;15.95;10.55;;;;;;;6.40;94.69;102009.56;4942944;29;20051;-82
2022/01/29 07:41:11;;;;;;;14.20;10.43;;;;;;;6.41;94.58;102013.81;4956222;29;20062;-82
2022/01/29 07:43:39;;;;;;;14.55;11.48;;;;;;;6.40;94.17;102005.19;4956245;29;20051;-82
2022/01/29 07:46:05;;;;;;;15.27;11.80;;;;;;;6.47;94.32;102005.66;4956535;29;20061;-82
2022/01/29 07:48:32;;;;;;;15.95;11.30;;;;;;;6.46;94.30;101998.78;4950054;29;20052;-81
2022/01/29 07:50:58;;;;;;;15.13;10.80;;;;;;;6.43;94.21;102010.19;4937627;29;20055;-83
2022/01/29 07:53:25;;;;;;;15.75;10.60;;;;;;;6.46;93.90;102009.16;4941818;29;20083;-82
2022/01/29 07:55:52;;;;;;;12.88;10.38;;;;;;;6.48;94.70;102012.50;4941152;29;20051;-81
2022/01/29 07:58:18;;;;;;;14.18;10.73;;;;;;;6.49;94.05;102014.19;4937942;29;20106;-82
2022/01/29 08:00:48;;;;;;;14.35;10.05;;;;;;;6.51;94.37;102014.94;4937719;29;20112;-82
2022/01/29 08:03:16;;;;;;;13.15;10.25;;;;;;;6.56;93.80;102005.91;4937355;29;20142;-82
2022/01/29 08:05:49;;;;;;;14.32;10.98;;;;;;;6.57;93.54;102010.19;4935357;29;20134;-82
2022/01/29 08:08:18;;;;;;;15.82;10.68;;;;;;;6.54;94.01;102006.94;4932569;29;20510;-81
2022/01/29 08:10:46;;;;;;;14.57;10.77;;;;;;;6.58;94.10;102005.81;4937550;29;20105;-82
2022/01/29 08:13:14;;;;;;;15.20;10.40;;;;;;;6.55;93.64;102013.81;4934789;29;20067;-81
2022/01/29 08:15:42;;;;;;;16.58;10.43;;;;;;;6.59;93.93;102015.28;4937080;29;20060;-81
2022/01/29 08:18:13;;;;;;;16.48;11.55;;;;;;;6.60;94.10;102011.75;4919821;29;20097;-82
2022/01/29 08:20:40;;;;;;;15.55;11.50;;;;;;;6.66;93.83;102012.16;4919404;29;20106;-82
2022/01/29 08:23:09;;;;;;;17.25;12.65;;;;;;;6.70;94.05;102012.81;4919053;29;20088;-82
2022/01/29 08:25:37;;;;;;;18.13;12.05;;;;;;;6.68;93.59;102000.84;4920481;29;20059;-81
2022/01/29 08:28:07;;;;;;;14.88;11.57;;;;;;;6.76;93.88;102002.03;4922976;29;20056;-82
2022/01/29 08:30:36;;;;;;;16.58;12.85;;;;;;;6.71;93.80;101995.44;4924060;29;20567;-83
2022/01/29 08:33:06;;;;;;;15.80;12.13;;;;;;;6.80;93.70;101992.25;4924957;29;20048;-82
2022/01/29 08:35:35;;;;;;;18.92;12.25;;;;;;;6.78;93.54;102005.38;4923919;29;20052;-83
2022/01/29 08:38:01;;;;;;;16.40;13.32;;;;;;;6.84;93.30;102002.38;4923236;29;20564;-82
2022/01/29 08:40:28;;;;;;;13.40;10.95;;;;;;;6.76;93.61;101991.63;4922653;29;20135;-84
2022/01/29 08:42:55;;;;;;;16.20;11.73;;;;;;;6.80;93.61;101993.09;4922865;29;20141;-84
2022/01/29 08:45:22;;;;;;;14.88;11.32;;;;;;;6.89;93.33;101989.91;4925319;29;20112;-83
2022/01/29 08:47:50;;;;;;;15.48;12.05;;;;;;;6.94;93.06;101985.25;4926092;29;20059;-83
2022/01/29 08:50:18;;;;;;;14.55;12.18;;;;;;;6.93;92.87;101998.34;4921096;29;20052;-84
2022/01/29 08:52:55;;;;;;;15.75;12.25;;;;;;;6.88;93.27;101980.44;4921188;29;20060;-85
2022/01/29 09:02:35;;;;;;;;;;;;;;;;;;;;;
2022/01/29 09:12:20;;;;;;;12.10;9.75;;;;;;;7.24;92.11;101971.97;4897535;29;20067;-82
2022/01/29 09:21:19;;;;;;;13.23;10.27;;;;;;;7.48;90.99;101927.00;4910319;29;20071;-82
2022/01/29 09:24:17;;;;;;;15.25;10.05;;;;;;;7.61;90.92;101948.66;4919872;29;20489;-83
2022/01/29 09:27:34;;;;;;;15.88;10.13;;;;;;;7.64;91.08;101944.06;4928403;29;20382;-82
2022/01/29 09:30:21;;;;;;;12.15;9.48;;;;;;;7.75;90.67;101935.50;4922848;29;20425;-83
2022/01/29 09:33:22;;;;;;;11.32;8.98;;;;;;;7.86;90.51;101937.38;4923620;29;20087;-84
2022/01/29 09:36:45;;;;;;;9.82;8.40;;;;;;;7.85;89.97;101938.31;4925285;29;20056;-83
2022/01/29 09:54:01;;;;;;;10.57;7.70;;;;;;;8.02;89.92;101917.13;4021327;23;20051;-85
2022/01/29 09:56:30;;;;;;;12.07;8.18;;;;;;;7.97;90.02;101914.00;4959754;28;20047;-84
2022/01/29 09:59:19;;;;;;;10.50;7.82;;;;;;;8.01;90.06;101904.22;4960316;29;20051;-85
2022/01/29 10:01:54;;;;;;;9.07;7.15;;;;;;;8.05;90.06;101916.06;4963184;29;20062;-84
2022/01/29 10:04:53;;;;;;;11.50;8.27;;;;;;;8.11;89.83;101918.22;4962387;28;20112;-86
2022/01/29 10:07:50;;;;;;;9.13;7.35;;;;;;;8.07;89.97;101899.38;4963125;29;20054;-85
2022/01/29 10:10:48;;;;;;;8.50;7.45;;;;;;;8.17;89.83;101920.41;4955808;28;20511;-85
2022/01/29 10:13:27;;;;;;;8.68;7.03;;;;;;;8.15;89.57;101907.47;4948233;29;20089;-84
2022/01/29 10:16:08;;;;;;;8.38;7.03;;;;;;;8.32;89.34;101914.97;4962952;29;20051;-82
2022/01/29 10:18:40;;;;;;;9.38;7.10;;;;;;;8.22;89.17;101906.09;4958458;29;20151;-84
2022/01/29 10:24:32;;;;;;;8.05;6.88;;;;;;;8.57;88.38;101918.41;4957257;29;20542;-84
2022/01/29 10:27:07;;;;;;;7.65;6.45;;;;;;;8.47;88.17;101883.53;4957688;28;20059;-83
2022/01/29 10:29:39;;;;;;;7.82;6.60;;;;;;;8.56;87.62;101896.69;4957735;28;20468;-84
2022/01/29 10:32:10;;;;;;;7.35;6.50;;;;;;;8.67;87.97;101903.75;4958554;29;20055;-82
2022/01/29 10:34:43;;;;;;;7.00;6.18;;;;;;;8.59;88.31;101888.66;4958567;28;20074;-83
2022/01/29 10:37:16;;;;;;;7.55;6.10;;;;;;;8.76;87.77;101894.41;4957713;29;20098;-82
2022/01/29 10:39:43;;;;;;;7.82;5.78;;;;;;;8.74;87.79;101891.91;4958421;29;20134;-82
2022/01/29 10:42:18;;;;;;;11.23;9.30;;;;;;;8.79;87.56;101897.63;4970606;28;20134;-83
2022/01/29 10:44:46;;;;;;;6.95;5.72;;;;;;;8.82;87.11;101893.97;4973181;28;20075;-84
2022/01/29 10:47:14;;;;;;;7.13;5.00;;;;;;;8.89;87.07;101877.72;4976659;28;20420;-83
2022/01/29 10:49:51;;;;;;;7.97;5.15;;;;;;;8.90;86.85;101874.19;4968434;28;20081;-84
2022/01/29 10:52:18;;;;;;;5.20;4.63;;;;;;;8.82;87.20;101866.09;4979365;28;20057;-84
2022/01/29 10:54:47;;;;;;;5.38;4.38;;;;;;;8.91;86.53;101860.19;4980329;28;20137;-84
2022/01/29 10:57:17;;;;;;;6.28;4.63;;;;;;;8.90;86.92;101857.69;4979318;28;20043;-83
2022/01/29 10:59:48;;;;;;;5.60;4.85;;;;;;;9.08;87.10;101851.06;4983357;28;20126;-84
2022/01/29 11:02:16;;;;;;;5.15;4.20;;;;;;;9.28;86.44;101847.75;4981611;28;20129;-83
2022/01/29 11:04:46;;;;;;;5.55;4.55;;;;;;;9.26;86.61;101867.94;4981621;28;20067;-84
2022/01/29 11:07:17;;;;;;;7.22;4.25;;;;;;;9.25;86.48;101862.84;4977441;28;20415;-84
2022/01/29 11:09:46;;;;;;;4.70;4.10;;;;;;;9.11;87.28;101860.44;4979329;28;20133;-83
2022/01/29 11:12:22;;;;;;;5.10;3.92;;;;;;;9.06;87.67;101847.72;4981240;28;20137;-83
2022/01/29 11:14:50;;;;;;;6.28;4.30;;;;;;;9.07;87.77;101859.00;4976916;28;20053;-83
2022/01/29 11:17:18;;;;;;;5.88;4.13;;;;;;;8.96;88.52;101841.56;4979169;28;20111;-84
2022/01/29 11:19:46;;;;;;;4.80;3.78;;;;;;;8.94;88.84;101844.28;4981706;28;20043;-84
2022/01/29 11:22:14;;;;;;;6.38;3.60;;;;;;;8.85;89.04;101833.69;4983108;28;20074;-84
2022/01/29 11:24:46;;;;;;;3.97;3.40;;;;;;;8.83;89.42;101835.59;4981464;28;20053;-79
2022/01/29 11:27:23;;;;;;;5.83;3.60;;;;;;;8.81;90.21;101840.09;4954142;28;20470;-82
2022/01/29 11:30:03;;;;;;;5.60;3.70;;;;;;;8.64;90.93;101820.47;4960895;29;20074;-82
2022/01/29 11:42:47;;;;;;;4.63;3.97;;;;;;;8.74;92.27;101795.34;4944066;29;20068;-80
2022/01/29 11:49:02;;;;;;;4.82;3.70;;;;;;;8.55;92.43;101767.19;4880995;29;20045;-82
2022/01/29 11:55:47;;;;;;;5.20;4.05;;;;;;;8.71;92.49;101795.59;4964283;28;20047;-84
2022/01/29 12:02:01;;;;;;;5.43;4.25;;;;;;;8.88;91.69;101753.38;4973083;28;20051;-82
2022/01/29 12:08:36;;;;;;;5.88;4.00;;;;;;;9.23;90.42;101781.97;4964475;28;20136;-81
2022/01/29 12:11:18;;;;;;;8.88;5.38;;;;;;;9.30;89.55;101764.88;4966150;28;20054;-81
2022/01/29 12:14:27;;;;;;;5.88;4.10;;;;;;;9.30;89.02;101741.38;4977675;28;20039;-81
2022/01/29 12:16:56;;;;;;;8.60;5.13;;;;;;;9.57;88.00;101758.44;4976403;28;20042;-80
2022/01/29 12:19:44;;;;;;;13.43;7.75;;;;;;;9.57;87.82;101750.59;4976868;28;20051;-82
2022/01/29 12:22:15;;;;;;;7.13;4.90;;;;;;;9.63;87.29;101710.91;4976603;28;20047;-83
2022/01/29 12:27:47;;;;;;;6.55;4.57;;;;;;;9.91;85.46;101699.06;4960799;29;20058;-82
2022/01/29 12:30:15;;;;;;;7.00;4.10;;;;;;;10.01;85.46;101715.63;4958749;28;20464;-81
2022/01/29 12:33:04;;;;;;;7.13;4.90;;;;;;;10.10;84.07;101719.28;4960346;28;20135;-82
2022/01/29 12:35:42;;;;;;;4.50;3.45;;;;;;;9.88;84.79;101694.91;4963052;28;20102;-81
2022/01/29 12:45:07;;;;;;;6.05;3.20;;;;;;;9.79;85.02;101692.19;4895901;29;20139;-79
2022/01/29 12:47:48;;;;;;;5.45;3.40;;;;;;;9.89;85.57;101696.56;4897226;29;20052;-81
2022/01/29 12:50:24;;;;;;;3.95;3.20;;;;;;;9.90;86.11;101705.22;4896826;29;20080;-80
2022/01/29 12:53:23;;;;;;;3.92;3.42;;;;;;;9.67;86.69;101672.28;4953611;28;20054;-81
2022/01/29 12:56:15;;;;;;;3.92;3.33;;;;;;;9.64;86.81;101686.44;4973485;28;20463;-78
2022/01/29 12:59:03;;;;;;;4.40;3.72;;;;;;;9.71;87.23;101687.59;4973247;28;20133;-79
2022/01/29 13:01:47;;;;;;;5.07;3.20;;;;;;;9.76;86.88;101695.91;4937660;29;20066;-80
2022/01/29 13:07:36;;;;;;;3.75;3.38;;;;;;;9.86;86.46;101670.66;4928954;29;20055;-82
2022/01/29 13:10:41;;;;;;;3.80;3.42;;;;;;;9.79;85.67;101650.38;4939181;29;20083;-78
2022/01/29 13:17:17;;;;;;;4.35;3.30;;;;;;;9.70;85.25;101638.06;4880901;29;20056;-81
2022/01/29 13:20:25;;;;;;;4.50;3.75;;;;;;;9.81;84.79;101619.72;4896988;29;20094;-82